createdAt,value
2022-12-16T00:00:06.497Z,53.68
2022-12-16T00:01:08.482Z,53.66
2022-12-16T00:02:10.505Z,53.59
2022-12-16T00:03:12.282Z,53.51
2022-12-16T00:04:14.061Z,53.50
2022-12-16T00:05:15.880Z,53.57
2022-12-16T00:06:17.714Z,53.56
2022-12-16T00:07:19.522Z,53.53
2022-12-16T00:08:21.337Z,53.58
2022-12-16T00:09:23.145Z,53.57
2022-12-16T00:10:25.298Z,53.60
2022-12-16T00:11:27.172Z,53.59
2022-12-16T00:12:28.966Z,53.57
2022-12-16T00:13:31.129Z,53.53
2022-12-16T00:14:33.186Z,53.46
2022-12-16T00:15:35.021Z,53.41
2022-12-16T00:16:37.036Z,53.51
2022-12-16T00:17:38.795Z,53.54
2022-12-16T00:18:40.607Z,53.61
2022-12-16T00:19:42.524Z,53.60
2022-12-16T00:20:44.728Z,53.57
2022-12-16T00:21:46.582Z,53.51
2022-12-16T00:22:48.402Z,53.48
2022-12-16T00:23:50.184Z,53.47
2022-12-16T00:24:52.244Z,53.45
2022-12-16T00:25:54.103Z,53.42
2022-12-16T00:26:56.651Z,53.34
2022-12-16T00:28:00.418Z,53.27
2022-12-16T00:29:02.103Z,53.33
2022-12-16T00:30:03.920Z,53.33
2022-12-16T00:31:05.790Z,53.38
2022-12-16T00:32:07.705Z,53.43
2022-12-16T00:33:09.937Z,53.54
2022-12-16T00:34:11.764Z,53.52
2022-12-16T00:35:13.598Z,53.48
2022-12-16T00:36:15.450Z,53.38
2022-12-16T00:37:17.288Z,53.51
2022-12-16T00:38:19.117Z,53.59
2022-12-16T00:39:20.928Z,53.64
2022-12-16T00:40:22.758Z,53.60
2022-12-16T00:41:24.674Z,53.75
2022-12-16T00:42:26.539Z,53.77
2022-12-16T00:43:28.348Z,53.83
2022-12-16T00:44:30.163Z,53.81
2022-12-16T00:45:32.002Z,53.76
2022-12-16T00:46:33.784Z,53.70
2022-12-16T00:47:38.573Z,53.63
2022-12-16T00:48:39.294Z,53.62
2022-12-16T00:49:41.122Z,53.52
2022-12-16T00:50:42.943Z,53.52
2022-12-16T00:51:44.751Z,53.47
2022-12-16T00:52:46.610Z,53.45
2022-12-16T00:53:48.430Z,53.45
2022-12-16T00:54:50.259Z,53.44
2022-12-16T00:55:53.736Z,53.42
2022-12-16T00:56:56.015Z,53.37
2022-12-16T00:57:57.884Z,53.39
2022-12-16T00:58:59.738Z,53.38
2022-12-16T01:00:01.650Z,53.36
2022-12-16T01:01:03.525Z,53.29
2022-12-16T01:02:05.599Z,53.35
2022-12-16T01:03:07.934Z,53.42
2022-12-16T01:04:09.910Z,53.38
2022-12-16T01:05:11.719Z,53.47
2022-12-16T01:06:13.843Z,53.51
2022-12-16T01:07:15.683Z,53.52
2022-12-16T01:08:17.563Z,53.53
2022-12-16T01:09:19.365Z,53.53
2022-12-16T01:10:21.483Z,53.49
2022-12-16T01:11:23.296Z,53.41
2022-12-16T01:12:25.239Z,53.36
2022-12-16T01:13:27.120Z,53.32
2022-12-16T01:14:28.950Z,53.32
2022-12-16T01:15:30.760Z,53.28
2022-12-16T01:16:32.787Z,53.38
2022-12-16T01:17:34.714Z,53.35
2022-12-16T01:18:36.569Z,53.30
2022-12-16T01:19:38.385Z,53.27
2022-12-16T01:20:40.299Z,53.32
2022-12-16T01:21:42.109Z,53.29
2022-12-16T01:22:43.920Z,53.29
2022-12-16T01:23:45.760Z,53.29
2022-12-16T01:24:47.591Z,53.30
2022-12-16T01:25:49.395Z,53.34
2022-12-16T01:26:51.414Z,53.38
2022-12-16T01:27:53.372Z,53.42
2022-12-16T01:28:57.041Z,53.44
2022-12-16T01:29:58.867Z,53.47
2022-12-16T01:31:00.669Z,53.53
2022-12-16T01:32:02.518Z,53.72
2022-12-16T01:33:04.395Z,53.79
2022-12-16T01:34:06.298Z,53.78
2022-12-16T01:35:23.584Z,53.80
2022-12-16T01:36:11.942Z,53.71
2022-12-16T01:37:13.772Z,53.69
2022-12-16T01:38:15.584Z,53.72
2022-12-16T01:39:17.443Z,53.81
2022-12-16T01:40:19.258Z,53.90
2022-12-16T01:41:21.076Z,54.00
2022-12-16T01:42:22.877Z,54.08
2022-12-16T01:43:24.724Z,54.14
2022-12-16T01:44:26.600Z,54.29
2022-12-16T01:45:28.428Z,54.34
2022-12-16T01:46:30.298Z,54.49
2022-12-16T01:47:32.130Z,54.55
2022-12-16T01:48:33.935Z,54.55
2022-12-16T01:49:35.777Z,54.52
2022-12-16T01:50:37.790Z,54.55
2022-12-16T01:51:39.600Z,54.56
2022-12-16T01:52:41.423Z,54.53
2022-12-16T01:53:43.232Z,54.55
2022-12-16T01:54:45.102Z,54.63
2022-12-16T01:55:46.902Z,54.70
2022-12-16T01:56:48.818Z,54.70
2022-12-16T01:57:50.626Z,54.61
2022-12-16T01:58:52.551Z,54.61
2022-12-16T01:59:54.418Z,54.67
2022-12-16T02:00:56.477Z,54.64
2022-12-16T02:01:58.547Z,54.66
2022-12-16T02:03:00.711Z,54.65
2022-12-16T02:04:02.636Z,54.68
2022-12-16T02:05:04.500Z,54.63
2022-12-16T02:06:06.513Z,54.60
2022-12-16T02:07:08.319Z,54.59
2022-12-16T02:08:10.144Z,54.50
2022-12-16T02:09:11.963Z,54.48
2022-12-16T02:10:14.035Z,54.52
2022-12-16T02:11:15.853Z,54.56
2022-12-16T02:12:17.670Z,54.62
2022-12-16T02:13:19.500Z,54.58
2022-12-16T02:14:21.329Z,54.59
2022-12-16T02:15:23.189Z,54.71
2022-12-16T02:16:25.037Z,54.78
2022-12-16T02:17:26.813Z,54.79
2022-12-16T02:18:28.653Z,54.83
2022-12-16T02:19:30.455Z,54.77
2022-12-16T02:20:32.298Z,54.80
2022-12-16T02:21:34.118Z,54.77
2022-12-16T02:22:35.919Z,54.81
2022-12-16T02:23:37.746Z,54.78
2022-12-16T02:24:39.540Z,54.76
2022-12-16T02:25:41.399Z,54.81
2022-12-16T02:26:43.222Z,54.80
2022-12-16T02:27:45.048Z,54.78
2022-12-16T02:28:46.852Z,54.83
2022-12-16T02:29:48.951Z,54.82
2022-12-16T02:30:50.967Z,54.81
2022-12-16T02:31:55.172Z,54.81
2022-12-16T02:32:56.462Z,54.76
2022-12-16T02:33:58.273Z,54.71
2022-12-16T02:35:00.099Z,54.71
2022-12-16T02:36:01.990Z,54.82
2022-12-16T02:37:03.818Z,54.86
2022-12-16T02:38:05.626Z,54.86
2022-12-16T02:39:07.439Z,54.84
2022-12-16T02:40:09.259Z,54.79
2022-12-16T02:41:11.123Z,54.72
2022-12-16T02:42:12.928Z,54.68
2022-12-16T02:43:14.750Z,54.65
2022-12-16T02:44:16.579Z,54.61
2022-12-16T02:45:18.429Z,54.58
2022-12-16T02:46:20.514Z,54.65
2022-12-16T02:47:22.297Z,54.66
2022-12-16T02:48:24.127Z,54.66
2022-12-16T02:49:25.963Z,54.65
2022-12-16T02:50:27.989Z,54.64
2022-12-16T02:51:29.876Z,54.61
2022-12-16T02:52:31.685Z,54.62
2022-12-16T02:53:34.074Z,54.60
2022-12-16T02:54:36.427Z,54.59
2022-12-16T02:55:38.223Z,54.54
2022-12-16T02:56:40.299Z,54.52
2022-12-16T02:57:42.114Z,54.45
2022-12-16T02:58:43.949Z,54.41
2022-12-16T02:59:45.783Z,54.41
2022-12-16T03:00:47.817Z,54.38
2022-12-16T03:01:49.853Z,54.39
2022-12-16T03:02:51.848Z,54.42
2022-12-16T03:03:53.671Z,54.44
2022-12-16T03:04:55.462Z,54.41
2022-12-16T03:05:57.287Z,54.36
2022-12-16T03:06:59.153Z,54.34
2022-12-16T03:08:00.957Z,54.36
2022-12-16T03:09:02.776Z,54.38
2022-12-16T03:10:04.689Z,54.37
2022-12-16T03:11:06.514Z,54.35
2022-12-16T03:12:08.390Z,54.34
2022-12-16T03:13:10.198Z,54.32
2022-12-16T03:14:11.998Z,54.40
2022-12-16T03:15:13.814Z,54.43
2022-12-16T03:16:15.958Z,54.52
2022-12-16T03:17:17.764Z,54.54
2022-12-16T03:18:19.580Z,54.54
2022-12-16T03:19:21.423Z,54.54
2022-12-16T03:20:23.244Z,54.56
2022-12-16T03:21:25.054Z,54.53
2022-12-16T03:22:27.040Z,54.53
2022-12-16T03:23:29.161Z,54.53
2022-12-16T03:24:31.097Z,54.53
2022-12-16T03:25:32.912Z,54.53
2022-12-16T03:26:34.711Z,54.53
2022-12-16T03:27:36.552Z,54.62
2022-12-16T03:28:38.375Z,54.64
2022-12-16T03:29:40.203Z,54.66
2022-12-16T03:30:42.162Z,54.69
2022-12-16T03:31:44.234Z,54.74
2022-12-16T03:32:46.082Z,54.76
2022-12-16T03:33:47.879Z,54.74
2022-12-16T03:34:49.688Z,54.78
2022-12-16T03:35:51.491Z,54.84
2022-12-16T03:36:53.491Z,54.89
2022-12-16T03:39:15.236Z,54.91
2022-12-16T03:40:17.033Z,54.92
2022-12-16T03:41:18.865Z,54.93
2022-12-16T03:42:23.809Z,54.90
2022-12-16T03:43:32.217Z,55.00
2022-12-16T03:44:34.336Z,55.05
2022-12-16T03:45:36.170Z,55.15
2022-12-16T03:46:38.578Z,55.14
2022-12-16T03:47:40.556Z,55.19
2022-12-16T03:48:42.421Z,55.23
2022-12-16T03:49:44.249Z,55.20
2022-12-16T03:50:46.276Z,55.16
2022-12-16T03:51:48.075Z,55.12
2022-12-16T03:52:49.884Z,55.07
2022-12-16T03:53:51.747Z,54.99
2022-12-16T03:54:53.548Z,54.94
2022-12-16T03:55:55.360Z,54.86
2022-12-16T03:56:57.303Z,54.77
2022-12-16T03:57:59.093Z,54.67
2022-12-16T03:59:00.984Z,54.57
2022-12-16T04:00:02.818Z,54.46
2022-12-16T04:01:04.629Z,54.44
2022-12-16T04:02:06.654Z,54.41
2022-12-16T04:03:08.959Z,54.40
2022-12-16T04:04:10.879Z,54.41
2022-12-16T04:05:12.686Z,54.33
2022-12-16T04:06:14.712Z,54.29
2022-12-16T04:07:16.526Z,54.33
2022-12-16T04:08:18.362Z,54.43
2022-12-16T04:09:20.240Z,54.48
2022-12-16T04:10:22.269Z,54.48
2022-12-16T04:11:24.096Z,54.49
2022-12-16T04:12:25.932Z,54.47
2022-12-16T04:13:27.767Z,54.57
2022-12-16T04:14:29.625Z,54.61
2022-12-16T04:15:31.439Z,54.71
2022-12-16T04:16:33.351Z,54.70
2022-12-16T04:17:35.182Z,54.64
2022-12-16T04:18:37.096Z,54.58
2022-12-16T04:19:38.968Z,54.48
2022-12-16T04:20:40.791Z,54.41
2022-12-16T04:21:42.621Z,54.34
2022-12-16T04:22:44.443Z,54.32
2022-12-16T04:23:46.234Z,54.27
2022-12-16T04:24:48.091Z,54.20
2022-12-16T04:25:49.921Z,54.18
2022-12-16T04:26:51.942Z,54.23
2022-12-16T04:27:53.761Z,54.23
2022-12-16T04:28:55.573Z,54.13
2022-12-16T04:29:57.426Z,54.21
2022-12-16T04:30:59.361Z,54.23
2022-12-16T04:32:01.250Z,54.23
2022-12-16T04:33:03.092Z,54.19
2022-12-16T04:34:04.988Z,54.14
2022-12-16T04:35:06.844Z,54.12
2022-12-16T04:36:09.338Z,54.07
2022-12-16T04:37:11.150Z,54.14
2022-12-16T04:38:15.824Z,54.16
2022-12-16T04:39:17.692Z,54.15
2022-12-16T04:40:19.624Z,54.10
2022-12-16T04:41:21.483Z,54.04
2022-12-16T04:42:23.494Z,54.00
2022-12-16T04:43:25.337Z,53.72
2022-12-16T04:44:27.246Z,53.72
2022-12-16T04:45:29.100Z,53.94
2022-12-16T04:46:31.165Z,53.95
2022-12-16T04:47:32.944Z,53.96
2022-12-16T04:48:34.743Z,54.05
2022-12-16T04:49:36.625Z,54.06
2022-12-16T04:50:38.678Z,54.10
2022-12-16T04:51:40.477Z,54.08
2022-12-16T04:52:42.289Z,54.05
2022-12-16T04:53:44.092Z,54.05
2022-12-16T04:54:45.914Z,54.14
2022-12-16T04:55:47.787Z,54.13
2022-12-16T04:56:49.700Z,54.15
2022-12-16T04:57:51.508Z,54.21
2022-12-16T04:58:53.335Z,54.29
2022-12-16T04:59:55.159Z,54.33
2022-12-16T05:00:56.992Z,54.33
2022-12-16T05:01:58.931Z,54.32
2022-12-16T05:03:00.804Z,54.30
2022-12-16T05:04:02.648Z,54.32
2022-12-16T05:05:04.583Z,54.29
2022-12-16T05:06:07.091Z,54.30
2022-12-16T05:07:08.903Z,54.25
2022-12-16T05:08:10.740Z,54.17
2022-12-16T05:09:12.569Z,54.18
2022-12-16T05:10:14.585Z,54.14
2022-12-16T05:11:16.442Z,54.18
2022-12-16T05:12:18.265Z,54.17
2022-12-16T05:13:20.070Z,54.16
2022-12-16T05:14:21.896Z,54.16
2022-12-16T05:15:23.705Z,54.18
2022-12-16T05:16:25.706Z,54.13
2022-12-16T05:17:27.480Z,54.16
2022-12-16T05:18:29.302Z,54.16
2022-12-16T05:19:31.880Z,54.12
2022-12-16T05:20:34.340Z,54.07
2022-12-16T05:21:36.390Z,54.05
2022-12-16T05:22:38.218Z,54.06
2022-12-16T05:23:40.038Z,54.09
2022-12-16T05:24:41.833Z,54.07
2022-12-16T05:25:43.666Z,54.07
2022-12-16T05:26:46.688Z,54.14
2022-12-16T05:27:48.533Z,54.19
2022-12-16T05:28:50.344Z,54.21
2022-12-16T05:29:52.238Z,54.18
2022-12-16T05:30:54.166Z,54.14
2022-12-16T05:31:57.655Z,54.06
2022-12-16T05:32:59.488Z,53.99
2022-12-16T05:34:01.278Z,53.99
2022-12-16T05:35:03.115Z,53.93
2022-12-16T05:36:05.291Z,53.93
2022-12-16T05:37:07.158Z,53.90
2022-12-16T05:38:08.954Z,53.95
2022-12-16T05:39:11.069Z,53.97
2022-12-16T05:40:12.871Z,53.94
2022-12-16T05:41:14.673Z,53.93
2022-12-16T05:42:16.536Z,53.90
2022-12-16T05:43:18.375Z,53.88
2022-12-16T05:44:20.202Z,53.90
2022-12-16T05:45:22.015Z,53.87
2022-12-16T05:46:24.078Z,53.84
2022-12-16T05:47:26.047Z,53.83
2022-12-16T05:48:27.820Z,53.85
2022-12-16T05:49:29.737Z,53.82
2022-12-16T05:50:31.624Z,53.84
2022-12-16T05:51:33.529Z,53.83
2022-12-16T05:52:35.382Z,53.82
2022-12-16T05:53:37.210Z,53.81
2022-12-16T05:54:39.030Z,53.82
2022-12-16T05:55:40.885Z,53.85
2022-12-16T05:56:42.806Z,53.88
2022-12-16T05:57:44.778Z,53.93
2022-12-16T05:58:46.628Z,54.03
2022-12-16T05:59:50.675Z,54.09
2022-12-16T06:00:52.532Z,54.12
2022-12-16T06:01:54.477Z,54.16
2022-12-16T06:02:56.562Z,54.16
2022-12-16T06:03:58.474Z,54.20
2022-12-16T06:05:00.349Z,54.19
2022-12-16T06:06:02.274Z,54.20
2022-12-16T06:07:04.170Z,54.29
2022-12-16T06:08:07.074Z,54.31
2022-12-16T06:09:08.883Z,54.29
2022-12-16T06:10:11.324Z,54.26
2022-12-16T06:11:13.131Z,54.22
2022-12-16T06:12:15.013Z,54.20
2022-12-16T06:13:16.893Z,54.21
2022-12-16T06:14:18.729Z,54.21
2022-12-16T06:15:20.527Z,54.19
2022-12-16T06:16:22.556Z,54.19
2022-12-16T06:17:24.403Z,54.18
2022-12-16T06:18:26.272Z,54.19
2022-12-16T06:19:28.067Z,54.25
2022-12-16T06:20:29.879Z,54.29
2022-12-16T06:21:31.704Z,54.31
2022-12-16T06:22:33.574Z,54.31
2022-12-16T06:23:35.855Z,54.34
2022-12-16T06:24:38.070Z,54.36
2022-12-16T06:25:39.903Z,54.39
2022-12-16T06:26:42.049Z,54.38
2022-12-16T06:27:44.062Z,54.38
2022-12-16T06:28:46.291Z,54.42
2022-12-16T06:29:48.160Z,54.47
2022-12-16T06:30:50.086Z,54.47
2022-12-16T06:31:52.004Z,54.51
2022-12-16T06:32:53.781Z,54.50
2022-12-16T06:33:55.706Z,54.45
2022-12-16T06:34:57.611Z,54.40
2022-12-16T06:35:59.522Z,54.41
2022-12-16T06:37:01.528Z,54.39
2022-12-16T06:38:03.440Z,54.45
2022-12-16T06:39:05.312Z,54.51
2022-12-16T06:40:07.943Z,54.59
2022-12-16T06:41:09.857Z,54.66
2022-12-16T06:42:11.740Z,54.70
2022-12-16T06:43:13.628Z,54.68
2022-12-16T06:44:15.502Z,54.69
2022-12-16T06:45:17.293Z,54.71
2022-12-16T06:46:19.577Z,54.69
2022-12-16T06:47:21.425Z,54.68
2022-12-16T06:48:23.233Z,54.66
2022-12-16T06:49:25.116Z,54.72
2022-12-16T06:50:27.096Z,54.74
2022-12-16T06:51:28.959Z,54.71
2022-12-16T06:52:30.805Z,54.74
2022-12-16T06:53:33.345Z,54.79
2022-12-16T06:54:35.577Z,54.82
2022-12-16T06:55:37.393Z,54.82
2022-12-16T06:56:39.227Z,54.76
2022-12-16T06:57:41.060Z,54.77
2022-12-16T06:58:42.906Z,54.82
2022-12-16T06:59:44.821Z,54.83
2022-12-16T07:00:46.769Z,54.87
2022-12-16T07:01:48.776Z,54.90
2022-12-16T07:02:50.938Z,54.92
2022-12-16T07:03:52.750Z,54.90
2022-12-16T07:04:54.619Z,54.90
2022-12-16T07:05:56.452Z,54.97
2022-12-16T07:06:58.434Z,55.01
2022-12-16T07:08:00.322Z,55.05
2022-12-16T07:09:02.197Z,55.00
2022-12-16T07:10:04.208Z,55.08
2022-12-16T07:11:16.027Z,55.11
2022-12-16T07:12:09.818Z,55.16
2022-12-16T07:13:11.645Z,55.21
2022-12-16T07:14:13.478Z,55.24
2022-12-16T07:15:15.350Z,55.28
2022-12-16T07:16:17.217Z,55.24
2022-12-16T07:17:19.009Z,55.17
2022-12-16T07:18:20.874Z,55.12
2022-12-16T07:19:22.666Z,55.08
2022-12-16T07:20:24.720Z,55.05
2022-12-16T07:22:46.562Z,55.00
2022-12-16T07:23:48.418Z,54.97
2022-12-16T07:24:50.352Z,54.96
2022-12-16T07:25:52.207Z,54.93
2022-12-16T07:26:54.261Z,54.93
2022-12-16T07:27:56.120Z,54.98
2022-12-16T07:28:58.014Z,54.98
2022-12-16T07:29:59.862Z,54.93
2022-12-16T07:31:01.751Z,54.94
2022-12-16T07:32:03.795Z,55.00
2022-12-16T07:33:05.790Z,55.02
2022-12-16T07:34:07.552Z,54.99
2022-12-16T07:35:09.455Z,54.99
2022-12-16T07:36:11.546Z,54.97
2022-12-16T07:37:13.372Z,54.97
2022-12-16T07:38:15.219Z,55.01
2022-12-16T07:39:17.052Z,55.04
2022-12-16T07:40:19.082Z,55.06
2022-12-16T07:41:21.116Z,55.03
2022-12-16T07:42:23.052Z,55.00
2022-12-16T07:43:24.879Z,55.05
2022-12-16T07:44:26.680Z,54.99
2022-12-16T07:45:28.654Z,55.02
2022-12-16T07:46:30.711Z,55.01
2022-12-16T07:47:32.736Z,55.05
2022-12-16T07:48:34.588Z,55.08
2022-12-16T07:49:36.421Z,55.10
2022-12-16T07:50:38.348Z,55.07
2022-12-16T07:51:40.209Z,55.07
2022-12-16T07:52:42.042Z,55.07
2022-12-16T07:53:43.881Z,55.04
2022-12-16T07:54:45.702Z,55.10
2022-12-16T07:55:47.603Z,55.12
2022-12-16T07:56:49.482Z,55.16
2022-12-16T07:57:51.309Z,55.12
2022-12-16T07:58:53.140Z,55.14
2022-12-16T07:59:56.771Z,55.15
2022-12-16T08:00:58.622Z,55.09
2022-12-16T08:02:00.595Z,55.09
2022-12-16T08:03:02.921Z,55.08
2022-12-16T08:04:04.960Z,55.09
2022-12-16T08:05:06.966Z,55.10
2022-12-16T08:06:09.018Z,55.18
2022-12-16T08:07:10.888Z,55.23
2022-12-16T08:08:12.686Z,55.31
2022-12-16T08:09:14.500Z,55.38
2022-12-16T08:10:16.335Z,55.36
2022-12-16T08:11:18.426Z,55.33
2022-12-16T08:12:20.268Z,55.32
2022-12-16T08:13:32.151Z,55.37
2022-12-16T08:14:25.922Z,55.41
2022-12-16T08:15:27.751Z,55.45
2022-12-16T08:16:29.734Z,55.46
2022-12-16T08:17:31.742Z,55.48
2022-12-16T08:18:33.577Z,55.51
2022-12-16T08:19:35.398Z,55.48
2022-12-16T08:20:37.224Z,55.50
2022-12-16T08:21:39.064Z,55.49
2022-12-16T08:22:40.928Z,55.51
2022-12-16T08:23:42.739Z,55.55
2022-12-16T08:24:49.677Z,55.58
2022-12-16T08:25:48.185Z,55.58
2022-12-16T08:26:50.713Z,55.59
2022-12-16T08:27:52.842Z,55.59
2022-12-16T08:28:54.678Z,55.64
2022-12-16T08:29:56.525Z,55.66
2022-12-16T08:30:58.529Z,55.65
2022-12-16T08:32:01.164Z,55.72
2022-12-16T08:33:12.131Z,55.80
2022-12-16T08:34:06.686Z,55.72
2022-12-16T08:35:08.541Z,55.72
2022-12-16T08:36:10.443Z,55.70
2022-12-16T08:37:12.254Z,55.72
2022-12-16T08:38:14.345Z,55.74
2022-12-16T08:39:16.161Z,55.78
2022-12-16T08:41:21.658Z,55.67
2022-12-16T08:42:23.563Z,55.74
2022-12-16T08:43:25.444Z,55.75
2022-12-16T08:44:27.233Z,55.77
2022-12-16T08:45:29.057Z,55.73
2022-12-16T08:46:31.079Z,55.71
2022-12-16T08:47:32.872Z,55.68
2022-12-16T08:48:34.744Z,55.67
2022-12-16T08:49:36.576Z,55.71
2022-12-16T08:50:38.396Z,55.71
2022-12-16T08:51:40.207Z,55.67
2022-12-16T08:52:42.037Z,55.66
2022-12-16T08:53:43.938Z,55.70
2022-12-16T08:54:45.762Z,55.66
2022-12-16T08:55:47.606Z,55.69
2022-12-16T08:56:49.520Z,55.72
2022-12-16T08:57:51.441Z,55.73
2022-12-16T08:58:53.292Z,55.71
2022-12-16T08:59:56.995Z,55.69
2022-12-16T09:01:04.760Z,55.71
2022-12-16T09:02:02.804Z,55.73
2022-12-16T09:03:04.909Z,55.73
2022-12-16T09:04:07.078Z,55.76
2022-12-16T09:05:08.977Z,55.76
2022-12-16T09:06:11.112Z,55.72
2022-12-16T09:07:12.977Z,55.69
2022-12-16T09:08:14.777Z,55.39
2022-12-16T09:09:16.693Z,55.39
2022-12-16T09:10:18.549Z,55.67
2022-12-16T09:11:20.382Z,55.65
2022-12-16T09:12:22.202Z,55.65
2022-12-16T09:13:24.201Z,55.62
2022-12-16T09:14:26.072Z,55.59
2022-12-16T09:15:27.960Z,55.54
2022-12-16T09:16:29.874Z,55.50
2022-12-16T09:17:31.762Z,55.48
2022-12-16T09:18:33.571Z,55.48
2022-12-16T09:19:35.448Z,55.47
2022-12-16T09:20:37.366Z,55.46
2022-12-16T09:21:39.189Z,55.46
2022-12-16T09:22:40.995Z,55.48
2022-12-16T09:23:42.808Z,55.45
2022-12-16T09:24:44.679Z,55.39
2022-12-16T09:25:46.507Z,55.41
2022-12-16T09:26:48.624Z,55.39
2022-12-16T09:27:50.458Z,55.38
2022-12-16T09:28:52.953Z,55.40
2022-12-16T09:29:54.862Z,55.45
2022-12-16T09:30:57.909Z,55.47
2022-12-16T09:31:59.813Z,55.46
2022-12-16T09:33:01.637Z,55.47
2022-12-16T09:34:03.468Z,55.44
2022-12-16T09:35:10.143Z,55.41
2022-12-16T09:36:09.231Z,55.43
2022-12-16T09:37:11.081Z,55.47
2022-12-16T09:38:12.923Z,55.42
2022-12-16T09:39:14.756Z,55.42
2022-12-16T09:40:16.618Z,55.39
2022-12-16T09:41:18.426Z,55.38
2022-12-16T09:42:20.247Z,55.37
2022-12-16T09:43:22.067Z,55.37
2022-12-16T09:44:24.225Z,55.34
2022-12-16T09:45:26.090Z,55.30
2022-12-16T09:46:28.083Z,55.26
2022-12-16T09:47:29.941Z,55.18
2022-12-16T09:48:31.760Z,55.14
2022-12-16T09:49:33.596Z,55.15
2022-12-16T09:50:35.721Z,55.16
2022-12-16T09:51:37.508Z,55.14
2022-12-16T09:52:39.343Z,55.12
2022-12-16T09:53:41.174Z,55.12
2022-12-16T09:54:43.005Z,55.14
2022-12-16T09:55:44.839Z,55.12
2022-12-16T09:56:46.862Z,55.13
2022-12-16T09:57:51.506Z,55.08
2022-12-16T09:58:52.400Z,55.09
2022-12-16T09:59:54.590Z,55.07
2022-12-16T10:00:57.263Z,55.06
2022-12-16T10:01:59.183Z,55.09
2022-12-16T10:03:06.500Z,55.09
2022-12-16T10:04:05.029Z,55.15
2022-12-16T10:05:06.968Z,55.14
2022-12-16T10:06:08.840Z,55.12
2022-12-16T10:07:10.669Z,55.12
2022-12-16T10:08:18.607Z,55.19
2022-12-16T10:09:16.147Z,55.22
2022-12-16T10:10:17.987Z,55.26
2022-12-16T10:11:19.800Z,55.26
2022-12-16T10:12:21.645Z,55.33
2022-12-16T10:13:23.458Z,55.35
2022-12-16T10:14:25.283Z,55.43
2022-12-16T10:15:27.232Z,55.47
2022-12-16T10:16:29.234Z,55.52
2022-12-16T10:17:31.107Z,55.52
2022-12-16T10:18:32.973Z,55.60
2022-12-16T10:19:34.900Z,55.58
2022-12-16T10:20:36.840Z,55.62
2022-12-16T10:21:38.701Z,55.63
2022-12-16T10:22:40.537Z,55.65
2022-12-16T10:23:42.343Z,55.70
2022-12-16T10:24:44.168Z,55.74
2022-12-16T10:25:45.997Z,55.76
2022-12-16T10:26:47.908Z,55.79
2022-12-16T10:27:49.730Z,55.75
2022-12-16T10:28:51.552Z,55.76
2022-12-16T10:29:55.182Z,55.71
2022-12-16T10:30:58.256Z,55.69
2022-12-16T10:32:00.275Z,55.66
2022-12-16T10:33:02.095Z,55.62
2022-12-16T10:34:03.929Z,55.60
2022-12-16T10:35:05.889Z,55.56
2022-12-16T10:36:08.152Z,55.57
2022-12-16T10:37:14.134Z,55.53
2022-12-16T10:38:14.700Z,55.55
2022-12-16T10:39:16.523Z,55.55
2022-12-16T10:40:18.477Z,55.58
2022-12-16T10:41:20.313Z,55.61
2022-12-16T10:42:22.195Z,55.62
2022-12-16T10:43:24.028Z,55.62
2022-12-16T10:44:25.833Z,55.63
2022-12-16T10:45:27.663Z,55.61
2022-12-16T10:46:29.844Z,55.65
2022-12-16T10:47:31.817Z,55.60
2022-12-16T10:48:33.996Z,55.66
2022-12-16T10:49:36.167Z,55.66
2022-12-16T10:50:38.116Z,55.68
2022-12-16T10:51:39.954Z,55.65
2022-12-16T10:52:41.811Z,55.61
2022-12-16T10:53:43.667Z,55.59
2022-12-16T10:54:45.499Z,55.59
2022-12-16T10:55:48.479Z,55.61
2022-12-16T10:56:50.473Z,55.62
2022-12-16T10:57:53.150Z,55.67
2022-12-16T10:58:54.990Z,55.62
2022-12-16T10:59:57.000Z,55.58
2022-12-16T11:00:58.873Z,55.54
2022-12-16T11:02:00.882Z,55.58
2022-12-16T11:03:03.210Z,55.54
2022-12-16T11:04:05.446Z,55.54
2022-12-16T11:05:07.363Z,55.51
2022-12-16T11:06:10.031Z,55.52
2022-12-16T11:07:11.878Z,55.47
2022-12-16T11:08:13.740Z,55.40
2022-12-16T11:09:15.567Z,55.41
2022-12-16T11:10:21.497Z,55.42
2022-12-16T11:11:21.163Z,55.37
2022-12-16T11:12:22.988Z,55.31
2022-12-16T11:13:24.883Z,55.28
2022-12-16T11:14:26.737Z,55.22
2022-12-16T11:15:29.620Z,55.24
2022-12-16T11:16:32.017Z,55.29
2022-12-16T11:17:33.942Z,55.39
2022-12-16T11:18:35.818Z,55.34
2022-12-16T11:19:37.616Z,55.31
2022-12-16T11:20:39.530Z,55.33
2022-12-16T11:21:41.340Z,55.37
2022-12-16T11:22:43.148Z,55.39
2022-12-16T11:23:44.993Z,55.39
2022-12-16T11:24:46.794Z,55.41
2022-12-16T11:25:48.613Z,55.40
2022-12-16T11:26:50.659Z,55.39
2022-12-16T11:27:52.816Z,55.35
2022-12-16T11:28:54.675Z,55.26
2022-12-16T11:29:57.319Z,55.18
2022-12-16T11:30:59.337Z,55.16
2022-12-16T11:32:01.457Z,55.16
2022-12-16T11:33:03.511Z,55.21
2022-12-16T11:34:05.373Z,55.18
2022-12-16T11:35:07.183Z,55.18
2022-12-16T11:36:08.997Z,55.16
2022-12-16T11:37:11.541Z,55.17
2022-12-16T11:38:13.649Z,55.18
2022-12-16T11:39:15.551Z,55.24
2022-12-16T11:40:17.626Z,55.25
2022-12-16T11:41:19.483Z,55.26
2022-12-16T11:42:21.300Z,55.30
2022-12-16T11:43:23.122Z,55.30
2022-12-16T11:44:25.018Z,55.34
2022-12-16T11:45:26.847Z,55.36
2022-12-16T11:46:28.832Z,55.38
2022-12-16T11:47:30.808Z,55.48
2022-12-16T11:49:52.657Z,55.51
2022-12-16T11:50:55.478Z,55.52
2022-12-16T11:52:21.183Z,55.53
2022-12-16T11:53:00.888Z,55.54
2022-12-16T11:54:02.694Z,55.57
2022-12-16T11:55:04.606Z,55.67
2022-12-16T11:56:11.136Z,55.67
2022-12-16T11:57:10.404Z,55.68
2022-12-16T11:58:12.192Z,55.69
2022-12-16T11:59:13.997Z,55.72
2022-12-16T12:00:16.057Z,55.71
2022-12-16T12:01:17.886Z,55.76
2022-12-16T12:02:19.711Z,55.74
2022-12-16T12:03:21.612Z,55.70
2022-12-16T12:04:23.658Z,55.67
2022-12-16T12:05:25.552Z,55.61
2022-12-16T12:06:27.375Z,55.54
2022-12-16T12:07:29.195Z,55.50
2022-12-16T12:08:31.004Z,55.52
2022-12-16T12:09:32.818Z,55.52
2022-12-16T12:10:34.794Z,55.50
2022-12-16T12:11:36.627Z,55.51
2022-12-16T12:12:38.425Z,55.52
2022-12-16T12:13:46.256Z,55.52
2022-12-16T12:14:43.874Z,55.49
2022-12-16T12:15:45.868Z,55.54
2022-12-16T12:16:47.924Z,55.54
2022-12-16T12:17:49.728Z,55.57
2022-12-16T12:18:51.528Z,55.61
2022-12-16T12:19:53.438Z,55.62
2022-12-16T12:20:57.292Z,55.64
2022-12-16T12:21:59.095Z,55.62
2022-12-16T12:23:00.928Z,55.64
2022-12-16T12:24:02.750Z,55.66
2022-12-16T12:25:04.578Z,55.74
2022-12-16T12:26:06.950Z,55.79
2022-12-16T12:27:08.784Z,55.88
2022-12-16T12:28:10.579Z,55.88
2022-12-16T12:29:12.399Z,55.89
2022-12-16T12:30:16.488Z,55.85
2022-12-16T12:31:17.939Z,55.86
2022-12-16T12:32:19.794Z,55.85
2022-12-16T12:33:21.602Z,55.95
2022-12-16T12:34:23.406Z,56.04
2022-12-16T12:35:25.481Z,56.12
2022-12-16T12:36:27.533Z,56.13
2022-12-16T12:37:29.330Z,56.13
2022-12-16T12:38:31.161Z,56.20
2022-12-16T12:39:32.985Z,56.24
2022-12-16T12:40:34.794Z,56.26
2022-12-16T12:41:36.645Z,56.32
2022-12-16T12:42:38.458Z,56.37
2022-12-16T12:43:43.232Z,56.34
2022-12-16T12:44:48.983Z,56.38
2022-12-16T12:45:47.547Z,56.41
2022-12-16T12:46:49.587Z,56.42
2022-12-16T12:47:51.409Z,56.39
2022-12-16T12:48:57.418Z,56.41
2022-12-16T12:49:56.860Z,56.42
2022-12-16T12:50:58.951Z,56.44
2022-12-16T12:52:00.784Z,56.49
2022-12-16T12:53:02.606Z,56.44
2022-12-16T12:54:04.437Z,56.41
2022-12-16T12:55:06.230Z,56.43
2022-12-16T12:56:09.058Z,56.44
2022-12-16T12:57:10.910Z,56.44
2022-12-16T12:58:12.737Z,56.42
2022-12-16T12:59:14.570Z,56.45
2022-12-16T13:00:16.576Z,56.45
2022-12-16T13:01:18.464Z,56.49
2022-12-16T13:02:20.469Z,56.46
2022-12-16T13:03:22.466Z,56.42
2022-12-16T13:04:24.395Z,56.45
2022-12-16T13:05:26.213Z,56.45
2022-12-16T13:06:28.152Z,56.44
2022-12-16T13:07:30.002Z,56.38
2022-12-16T13:08:32.021Z,56.32
2022-12-16T13:09:33.821Z,56.33
2022-12-16T13:10:35.829Z,56.30
2022-12-16T13:11:37.641Z,56.29
2022-12-16T13:12:39.501Z,56.28
2022-12-16T13:13:41.298Z,56.33
2022-12-16T13:14:43.117Z,56.40
2022-12-16T13:15:44.942Z,56.46
2022-12-16T13:16:47.100Z,56.49
2022-12-16T13:17:48.941Z,56.49
2022-12-16T13:18:50.755Z,56.53
2022-12-16T13:19:53.372Z,56.56
2022-12-16T13:20:55.183Z,56.55
2022-12-16T13:21:58.694Z,56.49
2022-12-16T13:23:00.543Z,56.53